sensor_id;sensor_type;location;lat;lon;timestamp;pressure;altitude;pressure_sealevel;temperature;humidity
81397;BME280;70852;49.908;8.126;2023-10-31T00:00:04;98555.38;;;10.98;92.16
81397;BME280;70852;49.908;8.126;2023-10-31T00:02:37;98561.34;;;11.00;91.58
81397;BME280;70852;49.908;8.126;2023-10-31T00:05:03;98556.41;;;10.90;90.22
81397;BME280;70852;49.908;8.126;2023-10-31T00:07:33;98570.56;;;10.89;90.04
81397;BME280;70852;49.908;8.126;2023-10-31T00:09:58;98570.22;;;10.90;90.28
81397;BME280;70852;49.908;8.126;2023-10-31T00:12:23;98579.22;;;10.87;89.21
81397;BME280;70852;49.908;8.126;2023-10-31T00:14:49;98574.31;;;10.81;89.33
81397;BME280;70852;49.908;8.126;2023-10-31T00:17:14;98576.31;;;10.80;89.51
81397;BME280;70852;49.908;8.126;2023-10-31T00:19:42;98568.03;;;10.80;89.43
81397;BME280;70852;49.908;8.126;2023-10-31T00:22:07;98569.81;;;10.73;89.56
81397;BME280;70852;49.908;8.126;2023-10-31T00:24:33;98567.03;;;10.73;89.14
81397;BME280;70852;49.908;8.126;2023-10-31T00:26:58;98568.19;;;10.72;89.85
81397;BME280;70852;49.908;8.126;2023-10-31T00:29:28;98568.94;;;10.69;88.56
81397;BME280;70852;49.908;8.126;2023-10-31T00:31:56;98572.34;;;10.62;90.15
81397;BME280;70852;49.908;8.126;2023-10-31T00:34:26;98574.22;;;10.58;90.19
81397;BME280;70852;49.908;8.126;2023-10-31T00:36:51;98577.06;;;10.61;89.72
81397;BME280;70852;49.908;8.126;2023-10-31T00:39:17;98578.22;;;10.60;90.17
81397;BME280;70852;49.908;8.126;2023-10-31T00:41:45;98575.91;;;10.62;90.21
81397;BME280;70852;49.908;8.126;2023-10-31T00:44:18;98583.03;;;10.63;89.83
81397;BME280;70852;49.908;8.126;2023-10-31T00:46:44;98571.63;;;10.65;89.49
81397;BME280;70852;49.908;8.126;2023-10-31T00:49:12;98567.97;;;10.61;91.16
81397;BME280;70852;49.908;8.126;2023-10-31T00:51:39;98571.53;;;10.61;88.54
81397;BME280;70852;49.908;8.126;2023-10-31T00:54:05;98584.03;;;10.55;88.98
81397;BME280;70852;49.908;8.126;2023-10-31T00:56:32;98577.56;;;10.48;89.38
81397;BME280;70852;49.908;8.126;2023-10-31T00:58:58;98571.16;;;10.44;89.60
81397;BME280;70852;49.908;8.126;2023-10-31T01:01:25;98577.09;;;10.46;89.29
81397;BME280;70852;49.908;8.126;2023-10-31T01:03:51;98579.44;;;10.44;89.14
81397;BME280;70852;49.908;8.126;2023-10-31T01:06:16;98576.06;;;10.35;89.62
81397;BME280;70852;49.908;8.126;2023-10-31T01:08:46;98577.13;;;10.30;89.41
81397;BME280;70852;49.908;8.126;2023-10-31T01:11:13;98583.44;;;10.31;88.64
81397;BME280;70852;49.908;8.126;2023-10-31T01:13:41;98587.31;;;10.26;89.12
81397;BME280;70852;49.908;8.126;2023-10-31T01:16:11;98591.91;;;10.22;88.83
81397;BME280;70852;49.908;8.126;2023-10-31T01:18:37;98596.63;;;10.21;88.42
81397;BME280;70852;49.908;8.126;2023-10-31T01:21:04;98604.47;;;10.19;88.79
81397;BME280;70852;49.908;8.126;2023-10-31T01:23:30;98598.94;;;10.19;88.89
81397;BME280;70852;49.908;8.126;2023-10-31T01:25:57;98596.69;;;10.09;89.18
81397;BME280;70852;49.908;8.126;2023-10-31T01:28:24;98599.75;;;10.04;88.57
81397;BME280;70852;49.908;8.126;2023-10-31T01:30:52;98607.91;;;10.01;90.16
81397;BME280;70852;49.908;8.126;2023-10-31T01:33:17;98616.09;;;9.97;89.57
81397;BME280;70852;49.908;8.126;2023-10-31T01:35:45;98618.84;;;9.97;89.33
81397;BME280;70852;49.908;8.126;2023-10-31T01:38:11;98608.09;;;9.92;89.47
81397;BME280;70852;49.908;8.126;2023-10-31T01:40:36;98609.94;;;9.88;89.06
81397;BME280;70852;49.908;8.126;2023-10-31T01:43:01;98606.66;;;9.82;90.02
81397;BME280;70852;49.908;8.126;2023-10-31T01:45:26;98612.25;;;9.86;89.71
81397;BME280;70852;49.908;8.126;2023-10-31T01:47:57;98612.88;;;9.79;89.57
81397;BME280;70852;49.908;8.126;2023-10-31T01:50:23;98611.19;;;9.75;89.82
81397;BME280;70852;49.908;8.126;2023-10-31T01:52:52;98613.75;;;9.68;91.07
81397;BME280;70852;49.908;8.126;2023-10-31T01:55:22;98621.50;;;9.62;90.21
81397;BME280;70852;49.908;8.126;2023-10-31T01:57:48;98627.00;;;9.62;90.21
81397;BME280;70852;49.908;8.126;2023-10-31T02:00:16;98635.88;;;9.55;89.77
81397;BME280;70852;49.908;8.126;2023-10-31T02:02:41;98638.16;;;9.53;90.93
81397;BME280;70852;49.908;8.126;2023-10-31T02:05:08;98654.53;;;9.46;90.26
81397;BME280;70852;49.908;8.126;2023-10-31T02:07:35;98650.44;;;9.40;90.53
81397;BME280;70852;49.908;8.126;2023-10-31T02:10:01;98641.69;;;9.38;91.69
81397;BME280;70852;49.908;8.126;2023-10-31T02:12:33;98644.00;;;9.36;90.25
81397;BME280;70852;49.908;8.126;2023-10-31T02:15:05;98634.25;;;9.39;89.18
81397;BME280;70852;49.908;8.126;2023-10-31T02:17:33;98645.38;;;9.42;90.32
81397;BME280;70852;49.908;8.126;2023-10-31T02:20:00;98641.94;;;9.33;90.95
81397;BME280;70852;49.908;8.126;2023-10-31T02:22:26;98649.84;;;9.35;90.90
81397;BME280;70852;49.908;8.126;2023-10-31T02:24:51;98640.94;;;9.26;90.68
81397;BME280;70852;49.908;8.126;2023-10-31T02:27:17;98640.41;;;9.20;91.15
81397;BME280;70852;49.908;8.126;2023-10-31T02:29:42;98634.91;;;9.20;90.80
81397;BME280;70852;49.908;8.126;2023-10-31T02:32:10;98645.81;;;9.16;91.31
81397;BME280;70852;49.908;8.126;2023-10-31T02:34:35;98643.84;;;9.17;91.04
81397;BME280;70852;49.908;8.126;2023-10-31T02:37:00;98648.56;;;9.16;91.18
81397;BME280;70852;49.908;8.126;2023-10-31T02:39:28;98646.75;;;9.08;92.06
81397;BME280;70852;49.908;8.126;2023-10-31T02:41:56;98646.09;;;8.99;91.50
81397;BME280;70852;49.908;8.126;2023-10-31T02:44:21;98647.25;;;8.98;92.51
81397;BME280;70852;49.908;8.126;2023-10-31T02:46:47;98646.66;;;8.93;92.44
81397;BME280;70852;49.908;8.126;2023-10-31T02:49:12;98654.34;;;8.99;92.17
81397;BME280;70852;49.908;8.126;2023-10-31T02:51:39;98661.81;;;8.99;92.00
81397;BME280;70852;49.908;8.126;2023-10-31T02:54:07;98657.44;;;8.98;92.40
81397;BME280;70852;49.908;8.126;2023-10-31T02:56:32;98666.50;;;8.98;92.20
81397;BME280;70852;49.908;8.126;2023-10-31T02:58:58;98657.44;;;8.98;92.22
81397;BME280;70852;49.908;8.126;2023-10-31T03:01:23;98660.22;;;8.98;92.48
81397;BME280;70852;49.908;8.126;2023-10-31T03:03:51;98666.50;;;8.98;93.19
81397;BME280;70852;49.908;8.126;2023-10-31T03:06:18;98665.47;;;9.03;92.72
81397;BME280;70852;49.908;8.126;2023-10-31T03:08:48;98672.91;;;9.02;93.08
81397;BME280;70852;49.908;8.126;2023-10-31T03:11:26;98671.88;;;9.07;92.82
81397;BME280;70852;49.908;8.126;2023-10-31T03:13:51;98676.00;;;9.01;92.96
81397;BME280;70852;49.908;8.126;2023-10-31T03:16:18;98676.59;;;9.06;92.90
81397;BME280;70852;49.908;8.126;2023-10-31T03:18:45;98678.53;;;9.06;93.06
81397;BME280;70852;49.908;8.126;2023-10-31T03:21:12;98680.03;;;9.03;93.05
81397;BME280;70852;49.908;8.126;2023-10-31T03:23:38;98687.25;;;9.08;92.82
81397;BME280;70852;49.908;8.126;2023-10-31T03:26:04;98691.34;;;9.14;92.72
81397;BME280;70852;49.908;8.126;2023-10-31T03:28:31;98685.63;;;9.19;92.63
81397;BME280;70852;49.908;8.126;2023-10-31T03:30:59;98681.31;;;9.34;92.37
81397;BME280;70852;49.908;8.126;2023-10-31T03:33:27;98682.53;;;9.48;92.02
81397;BME280;70852;49.908;8.126;2023-10-31T03:35:52;98691.09;;;9.59;91.60
81397;BME280;70852;49.908;8.126;2023-10-31T03:38:20;98693.06;;;9.59;91.86
81397;BME280;70852;49.908;8.126;2023-10-31T03:40:45;98688.78;;;9.61;92.34
81397;BME280;70852;49.908;8.126;2023-10-31T03:43:12;98696.97;;;9.58;91.83
81397;BME280;70852;49.908;8.126;2023-10-31T03:45:40;98702.28;;;9.50;91.33
81397;BME280;70852;49.908;8.126;2023-10-31T03:48:08;98702.00;;;9.55;91.08
81397;BME280;70852;49.908;8.126;2023-10-31T03:50:33;98708.03;;;9.45;92.14
81397;BME280;70852;49.908;8.126;2023-10-31T03:53:01;98715.75;;;9.40;92.16
81397;BME280;70852;49.908;8.126;2023-10-31T03:55:30;98717.78;;;9.43;91.59
81397;BME280;70852;49.908;8.126;2023-10-31T03:57:58;98725.97;;;9.39;92.15
81397;BME280;70852;49.908;8.126;2023-10-31T04:00:25;98717.94;;;9.34;92.04
81397;BME280;70852;49.908;8.126;2023-10-31T04:02:51;98724.38;;;9.26;93.00
81397;BME280;70852;49.908;8.126;2023-10-31T04:05:16;98723.09;;;9.36;91.75
81397;BME280;70852;49.908;8.126;2023-10-31T04:07:46;98728.25;;;9.37;92.34
81397;BME280;70852;49.908;8.126;2023-10-31T04:10:14;98734.91;;;9.36;91.91
81397;BME280;70852;49.908;8.126;2023-10-31T04:12:39;98728.91;;;9.46;90.95
81397;BME280;70852;49.908;8.126;2023-10-31T04:15:05;98738.91;;;9.51;91.59
81397;BME280;70852;49.908;8.126;2023-10-31T04:17:33;98735.50;;;9.42;91.76
81397;BME280;70852;49.908;8.126;2023-10-31T04:19:58;98743.75;;;9.42;91.50
81397;BME280;70852;49.908;8.126;2023-10-31T04:22:23;98741.34;;;9.40;91.11
81397;BME280;70852;49.908;8.126;2023-10-31T04:24:49;98744.19;;;9.44;91.48
81397;BME280;70852;49.908;8.126;2023-10-31T04:27:14;98751.78;;;9.47;91.19
81397;BME280;70852;49.908;8.126;2023-10-31T04:29:42;98756.47;;;9.46;91.55
81397;BME280;70852;49.908;8.126;2023-10-31T04:32:17;98758.88;;;9.48;91.52
81397;BME280;70852;49.908;8.126;2023-10-31T04:34:42;98767.69;;;9.53;91.02
81397;BME280;70852;49.908;8.126;2023-10-31T04:37:12;98771.88;;;9.47;91.03
81397;BME280;70852;49.908;8.126;2023-10-31T04:39:37;98772.78;;;9.51;91.11
81397;BME280;70852;49.908;8.126;2023-10-31T04:42:07;98772.31;;;9.49;92.49
81397;BME280;70852;49.908;8.126;2023-10-31T04:44:35;98771.38;;;9.58;91.53
81397;BME280;70852;49.908;8.126;2023-10-31T04:47:00;98784.00;;;9.59;90.62
81397;BME280;70852;49.908;8.126;2023-10-31T04:49:26;98781.00;;;9.64;90.49
81397;BME280;70852;49.908;8.126;2023-10-31T04:51:56;98789.47;;;9.71;89.19
81397;BME280;70852;49.908;8.126;2023-10-31T04:54:23;98784.44;;;9.73;90.00
81397;BME280;70852;49.908;8.126;2023-10-31T04:56:51;98788.00;;;9.73;89.79
81397;BME280;70852;49.908;8.126;2023-10-31T04:59:16;98794.75;;;9.76;89.58
81397;BME280;70852;49.908;8.126;2023-10-31T05:01:48;98793.25;;;9.78;89.08
81397;BME280;70852;49.908;8.126;2023-10-31T05:04:13;98792.09;;;9.79;90.53
81397;BME280;70852;49.908;8.126;2023-10-31T05:06:40;98795.88;;;9.75;90.59
81397;BME280;70852;49.908;8.126;2023-10-31T05:09:06;98796.00;;;9.78;89.57
81397;BME280;70852;49.908;8.126;2023-10-31T05:11:31;98804.28;;;9.78;90.47
81397;BME280;70852;49.908;8.126;2023-10-31T05:13:59;98801.41;;;9.75;90.44
81397;BME280;70852;49.908;8.126;2023-10-31T05:16:24;98816.56;;;9.81;89.95
81397;BME280;70852;49.908;8.126;2023-10-31T05:19:00;98811.75;;;9.78;90.95
81397;BME280;70852;49.908;8.126;2023-10-31T05:21:34;98812.09;;;9.76;89.85
81397;BME280;70852;49.908;8.126;2023-10-31T05:24:02;98806.34;;;9.81;90.91
81397;BME280;70852;49.908;8.126;2023-10-31T05:26:27;98806.13;;;9.74;90.35
81397;BME280;70852;49.908;8.126;2023-10-31T05:28:54;98808.53;;;9.76;90.96
81397;BME280;70852;49.908;8.126;2023-10-31T05:31:24;98819.78;;;9.83;88.14
81397;BME280;70852;49.908;8.126;2023-10-31T05:33:51;98819.44;;;9.84;88.26
81397;BME280;70852;49.908;8.126;2023-10-31T05:36:23;98821.25;;;9.93;88.14
81397;BME280;70852;49.908;8.126;2023-10-31T05:38:53;98817.47;;;9.85;88.68
81397;BME280;70852;49.908;8.126;2023-10-31T05:41:21;98820.66;;;9.87;87.75
81397;BME280;70852;49.908;8.126;2023-10-31T05:43:48;98814.13;;;9.91;87.83
81397;BME280;70852;49.908;8.126;2023-10-31T05:46:14;98823.66;;;9.94;87.99
81397;BME280;70852;49.908;8.126;2023-10-31T05:48:43;98822.50;;;9.95;86.89
81397;BME280;70852;49.908;8.126;2023-10-31T05:51:17;98818.81;;;9.91;87.87
81397;BME280;70852;49.908;8.126;2023-10-31T05:53:46;98822.03;;;9.93;87.32
81397;BME280;70852;49.908;8.126;2023-10-31T05:56:17;98822.38;;;9.91;87.33
81397;BME280;70852;49.908;8.126;2023-10-31T05:58:44;98825.03;;;9.88;88.55
81397;BME280;70852;49.908;8.126;2023-10-31T06:01:12;98828.84;;;9.83;87.10
81397;BME280;70852;49.908;8.126;2023-10-31T06:03:41;98834.72;;;9.82;88.67
81397;BME280;70852;49.908;8.126;2023-10-31T06:06:08;98845.63;;;9.78;88.20
81397;BME280;70852;49.908;8.126;2023-10-31T06:08:34;98837.97;;;9.72;88.01
81397;BME280;70852;49.908;8.126;2023-10-31T06:11:06;98854.50;;;9.72;87.99
81397;BME280;70852;49.908;8.126;2023-10-31T06:13:33;98853.09;;;9.78;87.58
81397;BME280;70852;49.908;8.126;2023-10-31T06:16:01;98860.00;;;9.72;87.90
81397;BME280;70852;49.908;8.126;2023-10-31T06:18:26;98860.47;;;9.74;87.99
81397;BME280;70852;49.908;8.126;2023-10-31T06:20:52;98865.63;;;9.75;86.94
81397;BME280;70852;49.908;8.126;2023-10-31T06:23:18;98871.59;;;9.77;86.65
81397;BME280;70852;49.908;8.126;2023-10-31T06:25:46;98869.41;;;9.83;87.34
81397;BME280;70852;49.908;8.126;2023-10-31T06:28:14;98884.53;;;9.89;86.13
81397;BME280;70852;49.908;8.126;2023-10-31T06:30:41;98885.03;;;9.79;86.92
81397;BME280;70852;49.908;8.126;2023-10-31T06:33:07;98890.34;;;9.72;88.05
81397;BME280;70852;49.908;8.126;2023-10-31T06:35:35;98898.81;;;9.79;87.41
81397;BME280;70852;49.908;8.126;2023-10-31T06:38:08;98903.19;;;9.80;87.40
81397;BME280;70852;49.908;8.126;2023-10-31T06:40:35;98909.97;;;9.82;86.62
81397;BME280;70852;49.908;8.126;2023-10-31T06:43:06;98908.69;;;9.80;87.19
81397;BME280;70852;49.908;8.126;2023-10-31T06:45:31;98931.91;;;9.79;87.13
81397;BME280;70852;49.908;8.126;2023-10-31T06:47:56;98932.50;;;9.72;87.53
81397;BME280;70852;49.908;8.126;2023-10-31T06:50:21;98930.75;;;9.68;86.83
81397;BME280;70852;49.908;8.126;2023-10-31T06:52:49;98933.38;;;9.76;87.77
81397;BME280;70852;49.908;8.126;2023-10-31T06:55:15;98942.59;;;9.80;86.86
81397;BME280;70852;49.908;8.126;2023-10-31T06:57:40;98937.53;;;9.82;86.59
81397;BME280;70852;49.908;8.126;2023-10-31T07:00:05;98942.72;;;9.84;86.69
81397;BME280;70852;49.908;8.126;2023-10-31T07:02:34;98944.41;;;9.76;86.88
81397;BME280;70852;49.908;8.126;2023-10-31T07:05:00;98944.88;;;9.78;87.44
81397;BME280;70852;49.908;8.126;2023-10-31T07:07:31;98940.38;;;9.86;86.23
81397;BME280;70852;49.908;8.126;2023-10-31T07:09:58;98949.59;;;9.78;87.34
81397;BME280;70852;49.908;8.126;2023-10-31T07:12:24;98948.22;;;9.84;86.42
81397;BME280;70852;49.908;8.126;2023-10-31T07:14:49;98957.06;;;9.77;85.74
81397;BME280;70852;49.908;8.126;2023-10-31T07:17:17;98959.72;;;9.74;86.14
81397;BME280;70852;49.908;8.126;2023-10-31T07:19:43;98967.28;;;9.77;85.88
81397;BME280;70852;49.908;8.126;2023-10-31T07:22:13;98963.16;;;9.71;85.79
81397;BME280;70852;49.908;8.126;2023-10-31T07:24:38;98967.41;;;9.80;85.86
81397;BME280;70852;49.908;8.126;2023-10-31T07:27:06;98967.06;;;9.82;85.84
81397;BME280;70852;49.908;8.126;2023-10-31T07:29:31;98974.53;;;9.81;85.57
81397;BME280;70852;49.908;8.126;2023-10-31T07:31:57;98973.47;;;9.86;87.51
81397;BME280;70852;49.908;8.126;2023-10-31T07:34:24;98966.13;;;9.90;86.72
81397;BME280;70852;49.908;8.126;2023-10-31T07:36:50;98966.25;;;9.94;86.26
81397;BME280;70852;49.908;8.126;2023-10-31T07:39:17;98966.47;;;10.01;86.85
81397;BME280;70852;49.908;8.126;2023-10-31T07:41:43;98967.25;;;10.13;85.54
81397;BME280;70852;49.908;8.126;2023-10-31T07:44:11;98956.66;;;10.15;85.34
81397;BME280;70852;49.908;8.126;2023-10-31T07:46:36;98966.44;;;10.25;83.96
81397;BME280;70852;49.908;8.126;2023-10-31T07:49:07;98974.78;;;10.41;83.83
81397;BME280;70852;49.908;8.126;2023-10-31T07:51:35;98976.53;;;10.61;83.42
81397;BME280;70852;49.908;8.126;2023-10-31T07:54:02;98982.63;;;10.67;82.46
81397;BME280;70852;49.908;8.126;2023-10-31T07:56:33;98985.84;;;10.69;82.82
81397;BME280;70852;49.908;8.126;2023-10-31T07:59:01;98999.44;;;10.61;83.08
81397;BME280;70852;49.908;8.126;2023-10-31T08:01:29;99001.19;;;10.54;83.08
81397;BME280;70852;49.908;8.126;2023-10-31T08:03:54;98998.56;;;10.57;83.23
81397;BME280;70852;49.908;8.126;2023-10-31T08:06:20;98998.22;;;10.59;81.58
81397;BME280;70852;49.908;8.126;2023-10-31T08:08:45;99007.53;;;10.54;81.67
81397;BME280;70852;49.908;8.126;2023-10-31T08:11:11;99009.38;;;10.50;82.15
81397;BME280;70852;49.908;8.126;2023-10-31T08:13:39;99010.81;;;10.60;82.85
81397;BME280;70852;49.908;8.126;2023-10-31T08:16:06;99018.53;;;10.67;80.81
81397;BME280;70852;49.908;8.126;2023-10-31T08:18:31;99026.22;;;10.73;82.00
81397;BME280;70852;49.908;8.126;2023-10-31T08:20:59;99014.47;;;10.76;80.69
81397;BME280;70852;49.908;8.126;2023-10-31T08:23:25;99030.09;;;10.84;80.18
81397;BME280;70852;49.908;8.126;2023-10-31T08:25:52;99030.69;;;10.78;80.87
81397;BME280;70852;49.908;8.126;2023-10-31T08:28:20;99034.34;;;10.82;81.38
81397;BME280;70852;49.908;8.126;2023-10-31T08:30:47;99030.22;;;10.76;81.83
81397;BME280;70852;49.908;8.126;2023-10-31T08:33:13;99037.94;;;10.70;80.56
81397;BME280;70852;49.908;8.126;2023-10-31T08:35:39;99044.03;;;10.76;81.51
81397;BME280;70852;49.908;8.126;2023-10-31T08:38:10;99041.97;;;10.73;80.78
81397;BME280;70852;49.908;8.126;2023-10-31T08:40:35;99044.50;;;10.78;80.48
81397;BME280;70852;49.908;8.126;2023-10-31T08:43:03;99038.47;;;10.88;80.22
81397;BME280;70852;49.908;8.126;2023-10-31T08:45:31;99047.22;;;10.90;79.51
81397;BME280;70852;49.908;8.126;2023-10-31T08:47:56;99049.97;;;10.90;80.17
81397;BME280;70852;49.908;8.126;2023-10-31T08:50:24;99048.91;;;10.94;80.25
81397;BME280;70852;49.908;8.126;2023-10-31T08:52:54;99059.97;;;10.94;79.61
81397;BME280;70852;49.908;8.126;2023-10-31T08:55:19;99059.88;;;10.91;79.95
81397;BME280;70852;49.908;8.126;2023-10-31T08:57:49;99070.44;;;11.01;78.17
81397;BME280;70852;49.908;8.126;2023-10-31T09:00:15;99072.13;;;11.06;78.21
81397;BME280;70852;49.908;8.126;2023-10-31T09:02:41;99077.41;;;11.11;78.11
81397;BME280;70852;49.908;8.126;2023-10-31T09:05:06;99079.44;;;11.14;78.51
81397;BME280;70852;49.908;8.126;2023-10-31T09:07:31;99088.66;;;11.18;79.16
81397;BME280;70852;49.908;8.126;2023-10-31T09:09:59;99081.06;;;11.15;79.21
81397;BME280;70852;49.908;8.126;2023-10-31T09:12:28;99094.50;;;11.00;78.97
81397;BME280;70852;49.908;8.126;2023-10-31T09:14:55;99092.47;;;11.13;79.67
81397;BME280;70852;49.908;8.126;2023-10-31T09:17:21;99096.25;;;11.21;79.02
81397;BME280;70852;49.908;8.126;2023-10-31T09:19:46;99096.44;;;11.28;77.74
81397;BME280;70852;49.908;8.126;2023-10-31T09:22:14;99092.41;;;11.25;77.95
81397;BME280;70852;49.908;8.126;2023-10-31T09:24:41;99098.97;;;11.33;75.89
81397;BME280;70852;49.908;8.126;2023-10-31T09:27:07;99107.53;;;11.44;76.65
81397;BME280;70852;49.908;8.126;2023-10-31T09:29:33;99109.97;;;11.61;76.47
81397;BME280;70852;49.908;8.126;2023-10-31T09:31:58;99109.00;;;11.53;76.04
81397;BME280;70852;49.908;8.126;2023-10-31T09:34:24;99112.84;;;11.64;76.09
81397;BME280;70852;49.908;8.126;2023-10-31T09:36:49;99123.25;;;11.99;75.31
81397;BME280;70852;49.908;8.126;2023-10-31T09:39:15;99125.03;;;12.23;75.57
81397;BME280;70852;49.908;8.126;2023-10-31T09:41:42;99126.09;;;12.50;73.35
81397;BME280;70852;49.908;8.126;2023-10-31T09:44:08;99131.84;;;12.95;71.17
81397;BME280;70852;49.908;8.126;2023-10-31T09:46:36;99136.22;;;13.31;68.70
81397;BME280;70852;49.908;8.126;2023-10-31T09:49:04;99133.78;;;13.10;70.52
81397;BME280;70852;49.908;8.126;2023-10-31T09:51:30;99136.31;;;13.00;69.51
81397;BME280;70852;49.908;8.126;2023-10-31T09:53:59;99133.31;;;13.08;70.23
81397;BME280;70852;49.908;8.126;2023-10-31T09:56:29;99139.53;;;13.02;69.75
81397;BME280;70852;49.908;8.126;2023-10-31T09:59:00;99134.66;;;13.14;69.25
81397;BME280;70852;49.908;8.126;2023-10-31T10:01:25;99133.06;;;13.13;69.98
81397;BME280;70852;49.908;8.126;2023-10-31T10:03:51;99126.78;;;13.36;69.54
81397;BME280;70852;49.908;8.126;2023-10-31T10:06:17;99135.75;;;13.10;71.21
81397;BME280;70852;49.908;8.126;2023-10-31T10:08:46;99127.47;;;12.94;68.73
81397;BME280;70852;49.908;8.126;2023-10-31T10:11:11;99129.59;;;13.01;69.76
81397;BME280;70852;49.908;8.126;2023-10-31T10:13:37;99124.56;;;13.06;70.04
81397;BME280;70852;49.908;8.126;2023-10-31T10:16:02;99128.22;;;13.10;70.01
81397;BME280;70852;49.908;8.126;2023-10-31T10:18:31;99131.91;;;13.34;69.12
81397;BME280;70852;49.908;8.126;2023-10-31T10:21:01;99126.19;;;13.46;69.99
81397;BME280;70852;49.908;8.126;2023-10-31T10:23:31;99130.38;;;13.55;69.12
81397;BME280;70852;49.908;8.126;2023-10-31T10:25:58;99137.56;;;13.60;68.47
81397;BME280;70852;49.908;8.126;2023-10-31T10:28:28;99141.91;;;13.03;69.94
81397;BME280;70852;49.908;8.126;2023-10-31T10:30:58;99147.16;;;12.89;70.69
81397;BME280;70852;49.908;8.126;2023-10-31T10:33:25;99147.28;;;12.77;69.45
81397;BME280;70852;49.908;8.126;2023-10-31T10:35:51;99151.44;;;12.87;69.87
81397;BME280;70852;49.908;8.126;2023-10-31T10:38:18;99159.06;;;13.44;67.88
81397;BME280;70852;49.908;8.126;2023-10-31T10:40:46;99153.97;;;13.69;67.58
81397;BME280;70852;49.908;8.126;2023-10-31T10:43:30;99155.50;;;14.31;64.00
81397;BME280;70852;49.908;8.126;2023-10-31T10:46:00;99159.84;;;14.06;65.57
81397;BME280;70852;49.908;8.126;2023-10-31T10:48:27;99159.25;;;13.74;67.06
81397;BME280;70852;49.908;8.126;2023-10-31T10:51:07;99154.13;;;13.56;67.24
81397;BME280;70852;49.908;8.126;2023-10-31T10:53:47;99161.25;;;13.35;67.95
81397;BME280;70852;49.908;8.126;2023-10-31T10:56:21;99154.25;;;13.06;67.26
81397;BME280;70852;49.908;8.126;2023-10-31T10:59:00;99145.94;;;13.06;68.89
81397;BME280;70852;49.908;8.126;2023-10-31T11:01:26;99143.13;;;12.87;68.91
81397;BME280;70852;49.908;8.126;2023-10-31T11:03:55;99135.19;;;12.85;69.07
81397;BME280;70852;49.908;8.126;2023-10-31T11:06:21;99142.56;;;12.97;70.32
81397;BME280;70852;49.908;8.126;2023-10-31T11:08:47;99137.91;;;12.81;71.14
81397;BME280;70852;49.908;8.126;2023-10-31T11:11:12;99130.50;;;12.70;70.79
81397;BME280;70852;49.908;8.126;2023-10-31T11:13:43;99132.13;;;12.55;70.64
81397;BME280;70852;49.908;8.126;2023-10-31T11:16:15;99130.88;;;12.53;71.74
81397;BME280;70852;49.908;8.126;2023-10-31T11:18:41;99127.97;;;12.45;72.10
81397;BME280;70852;49.908;8.126;2023-10-31T11:21:06;99123.31;;;12.50;70.80
81397;BME280;70852;49.908;8.126;2023-10-31T11:23:32;99118.44;;;12.62;72.01
81397;BME280;70852;49.908;8.126;2023-10-31T11:25:57;99120.41;;;12.62;71.32
81397;BME280;70852;49.908;8.126;2023-10-31T11:28:26;99116.78;;;12.58;71.97
81397;BME280;70852;49.908;8.126;2023-10-31T11:30:52;99120.94;;;12.67;71.15
81397;BME280;70852;49.908;8.126;2023-10-31T11:33:23;99126.03;;;12.65;70.73
81397;BME280;70852;49.908;8.126;2023-10-31T11:35:50;99119.59;;;12.61;70.79
81397;BME280;70852;49.908;8.126;2023-10-31T11:38:15;99124.72;;;12.59;71.12
81397;BME280;70852;49.908;8.126;2023-10-31T11:43:15;99120.06;;;12.63;69.96
81397;BME280;70852;49.908;8.126;2023-10-31T11:45:47;99123.25;;;12.65;69.73
81397;BME280;70852;49.908;8.126;2023-10-31T11:48:14;99125.63;;;12.82;70.76
81397;BME280;70852;49.908;8.126;2023-10-31T11:50:40;99122.09;;;13.01;69.41
81397;BME280;70852;49.908;8.126;2023-10-31T11:55:32;99133.06;;;13.52;67.68
81397;BME280;70852;49.908;8.126;2023-10-31T11:58:16;99141.28;;;13.68;66.64
81397;BME280;70852;49.908;8.126;2023-10-31T12:00:46;99143.44;;;13.78;67.55
81397;BME280;70852;49.908;8.126;2023-10-31T12:03:11;99145.56;;;13.84;66.80
81397;BME280;70852;49.908;8.126;2023-10-31T12:05:39;99147.53;;;13.84;67.23
81397;BME280;70852;49.908;8.126;2023-10-31T12:08:04;99144.56;;;13.73;65.73
81397;BME280;70852;49.908;8.126;2023-10-31T12:10:30;99145.16;;;13.63;66.47
81397;BME280;70852;49.908;8.126;2023-10-31T12:12:57;99145.97;;;13.64;67.15
81397;BME280;70852;49.908;8.126;2023-10-31T12:15:23;99145.53;;;13.62;66.88
81397;BME280;70852;49.908;8.126;2023-10-31T12:17:49;99148.81;;;13.48;67.02
81397;BME280;70852;49.908;8.126;2023-10-31T12:20:14;99152.72;;;13.43;67.95
81397;BME280;70852;49.908;8.126;2023-10-31T12:22:41;99157.94;;;13.29;68.16
81397;BME280;70852;49.908;8.126;2023-10-31T12:25:10;99159.59;;;13.14;67.81
81397;BME280;70852;49.908;8.126;2023-10-31T12:27:46;99157.81;;;13.06;69.69
81397;BME280;70852;49.908;8.126;2023-10-31T12:30:19;99162.50;;;13.02;69.23
81397;BME280;70852;49.908;8.126;2023-10-31T12:32:52;99154.34;;;13.09;71.02
81397;BME280;70852;49.908;8.126;2023-10-31T12:35:21;99152.38;;;13.10;69.85
81397;BME280;70852;49.908;8.126;2023-10-31T12:37:49;99165.16;;;13.14;69.38
81397;BME280;70852;49.908;8.126;2023-10-31T12:40:21;99160.63;;;13.26;69.23
81397;BME280;70852;49.908;8.126;2023-10-31T12:42:50;99165.47;;;13.29;70.09
81397;BME280;70852;49.908;8.126;2023-10-31T12:45:17;99167.34;;;13.25;70.33
81397;BME280;70852;49.908;8.126;2023-10-31T12:48:00;99170.22;;;13.28;69.76
81397;BME280;70852;49.908;8.126;2023-10-31T12:50:26;99160.38;;;13.31;67.88
81397;BME280;70852;49.908;8.126;2023-10-31T12:52:53;99167.56;;;13.35;68.09
81397;BME280;70852;49.908;8.126;2023-10-31T12:55:23;99171.59;;;13.38;67.35
81397;BME280;70852;49.908;8.126;2023-10-31T12:57:50;99173.06;;;13.32;68.08
81397;BME280;70852;49.908;8.126;2023-10-31T13:00:18;99170.50;;;13.42;68.87
81397;BME280;70852;49.908;8.126;2023-10-31T13:02:50;99177.66;;;13.43;69.16
81397;BME280;70852;49.908;8.126;2023-10-31T13:05:17;99184.16;;;13.51;68.16
81397;BME280;70852;49.908;8.126;2023-10-31T13:07:49;99183.56;;;13.61;66.86
81397;BME280;70852;49.908;8.126;2023-10-31T13:10:16;99179.84;;;13.53;66.96